Time;durP1;ratioP1;P1;durP2;ratioP2;P2;SDS_P1;SDS_P2;PMS_P1;PMS_P2;Temp;Humidity;BMP_temperature;BMP_pressure;BME280_temperature;BME280_humidity;BME280_pressure;Samples;Min_cycle;Max_cycle;Signal;HPM_P1;HPM_P2
2023/01/19 00:01:35;;;;;;;0.65;0.65;;;;;;;6.21;95.75;97583.44;4439802;32;35089;-77
2023/01/19 00:04:04;;;;;;;1.95;1.85;;;;;;;6.35;93.86;97587.44;4426042;32;33818;-77
2023/01/19 00:06:32;;;;;;;0.50;0.50;;;;;;;6.35;94.59;97590.00;4439837;32;34722;-68
2023/01/19 00:09:00;;;;;;;0.50;0.50;;;;;;;6.20;95.36;97588.62;4439861;32;35970;-78
2023/01/19 00:11:28;;;;;;;0.70;0.70;;;;;;;6.25;94.56;97590.22;4439779;32;34501;-68
2023/01/19 00:13:57;;;;;;;0.60;0.60;;;;;;;6.52;93.42;97587.06;4439831;32;34302;-77
2023/01/19 00:16:25;;;;;;;0.50;0.50;;;;;;;6.38;94.05;97589.94;4439758;32;33896;-69
2023/01/19 00:18:54;;;;;;;1.33;0.70;;;;;;;6.53;93.26;97592.19;4439678;32;36023;-77
2023/01/19 00:21:23;;;;;;;2.15;1.95;;;;;;;6.11;94.59;97594.84;4425818;32;34522;-73
2023/01/19 00:23:51;;;;;;;0.50;0.50;;;;;;;6.35;92.81;97590.84;4439696;32;33435;-69
2023/01/19 00:26:20;;;;;;;0.60;0.60;;;;;;;6.51;93.33;97585.34;4439647;32;33900;-68
2023/01/19 00:28:49;;;;;;;0.60;0.60;;;;;;;5.87;94.54;97584.06;4439651;32;35915;-77
2023/01/19 00:31:19;;;;;;;0.40;0.40;;;;;;;6.43;93.41;97581.22;4439803;32;34593;-74
2023/01/19 00:33:48;;;;;;;0.50;0.50;;;;;;;6.03;94.95;97576.06;4439507;32;34364;-77
2023/01/19 00:36:17;;;;;;;0.65;0.65;;;;;;;6.17;95.13;97576.59;4439680;32;33805;-77
2023/01/19 00:38:45;;;;;;;2.20;2.00;;;;;;;6.04;94.90;97580.34;4439624;32;34962;-76
2023/01/19 00:41:13;;;;;;;2.25;0.70;;;;;;;6.31;94.44;97578.06;4439488;32;34443;-76
2023/01/19 00:43:41;;;;;;;0.60;0.60;;;;;;;5.92;96.33;97578.00;4439584;32;34169;-68
2023/01/19 00:46:09;;;;;;;0.85;0.85;;;;;;;5.79;97.65;97575.66;4439585;32;33961;-77
2023/01/19 00:48:38;;;;;;;0.80;0.80;;;;;;;5.74;97.11;97577.47;4439484;32;35118;-78
2023/01/19 00:51:06;;;;;;;0.77;0.77;;;;;;;5.91;96.33;97571.09;4439401;32;35240;-78
2023/01/19 00:53:34;;;;;;;0.60;0.60;;;;;;;6.19;94.27;97566.25;4439583;32;34532;-77
2023/01/19 00:56:02;;;;;;;2.20;1.95;;;;;;;6.22;93.36;97569.59;4439515;32;33810;-75
2023/01/19 00:58:30;;;;;;;0.50;0.50;;;;;;;6.44;92.89;97570.00;4439541;32;34936;-76
2023/01/19 01:01:02;;;;;;;0.50;0.50;;;;;;;5.97;93.80;97571.88;4439354;32;34328;-77
2023/01/19 01:03:31;;;;;;;0.70;0.70;;;;;;;6.02;95.57;97571.78;4439605;32;34417;-77
2023/01/19 01:05:59;;;;;;;0.65;0.65;;;;;;;6.20;92.67;97573.97;4439454;32;33962;-74
2023/01/19 01:08:27;;;;;;;0.45;0.45;;;;;;;5.82;94.60;97574.72;4439435;32;35913;-75
2023/01/19 01:10:56;;;;;;;0.85;0.85;;;;;;;5.70;95.78;97576.69;4439442;32;34587;-75
2023/01/19 01:13:24;;;;;;;0.52;0.52;;;;;;;5.78;96.73;97576.53;4439426;32;33599;-73
2023/01/19 01:15:55;;;;;;;0.50;0.50;;;;;;;5.95;92.96;97583.06;4439448;32;33861;-77
2023/01/19 01:18:24;;;;;;;0.70;0.70;;;;;;;6.00;93.98;97578.69;4439478;32;34921;-73
2023/01/19 01:20:52;;;;;;;0.50;0.50;;;;;;;5.87;93.59;97589.25;4439449;32;34625;-69
2023/01/19 01:23:23;;;;;;;0.62;0.57;;;;;;;5.85;93.52;97591.00;4439710;32;33617;-76
2023/01/19 01:25:51;;;;;;;0.50;0.50;;;;;;;5.87;93.25;97584.06;4439608;32;34034;-79
2023/01/19 01:28:19;;;;;;;0.50;0.50;;;;;;;5.87;92.61;97580.66;4439575;32;35924;-77
2023/01/19 01:30:52;;;;;;;0.43;0.43;;;;;;;5.77;93.38;97581.72;4439296;32;34435;-77
2023/01/19 01:33:21;;;;;;;1.30;1.20;;;;;;;5.45;95.32;97585.75;4439130;32;33447;-77
2023/01/19 01:36:10;;;;;;;0.50;0.50;;;;;;;5.61;93.40;97589.78;4439325;32;34114;-76
2023/01/19 01:38:39;;;;;;;0.60;0.60;;;;;;;5.71;93.62;97593.03;4439296;32;35254;-77
2023/01/19 01:41:08;;;;;;;0.50;0.50;;;;;;;5.86;93.38;97597.88;4439013;32;34579;-77
2023/01/19 01:43:44;;;;;;;0.57;0.57;;;;;;;5.81;92.89;97607.47;4439137;32;33884;-68
2023/01/19 01:46:14;;;;;;;0.50;0.50;;;;;;;5.73;92.73;97606.75;4438329;32;34058;-76
2023/01/19 01:48:47;;;;;;;0.60;0.60;;;;;;;5.78;92.69;97615.25;4439089;32;35062;-69
2023/01/19 01:51:28;;;;;;;0.50;0.50;;;;;;;5.62;95.65;97617.28;4425423;32;34635;-69
2023/01/19 01:54:09;;;;;;;0.50;0.50;;;;;;;5.70;94.35;97615.41;4425493;32;33532;-76
2023/01/19 01:56:43;;;;;;;0.65;0.65;;;;;;;5.68;93.38;97613.72;4439134;32;34768;-77
2023/01/19 01:59:24;;;;;;;0.68;0.68;;;;;;;5.87;91.84;97625.41;4439123;32;35303;-78
2023/01/19 02:04:50;;;;;;;0.55;0.55;;;;;;;5.38;92.12;97630.63;4439110;32;33509;-78
2023/01/19 02:13:21;;;;;;;0.60;0.60;;;;;;;4.87;94.62;97631.47;4438992;32;34351;-72
2023/01/19 02:15:56;;;;;;;0.50;0.50;;;;;;;4.97;94.39;97609.81;4438893;32;33337;-77
2023/01/19 02:18:29;;;;;;;0.50;0.50;;;;;;;4.96;95.03;97577.19;4425286;32;33799;-73
2023/01/19 02:21:17;;;;;;;0.50;0.50;;;;;;;4.71;94.96;97566.38;4425225;32;36295;-78
2023/01/19 02:23:50;;;;;;;0.50;0.50;;;;;;;4.92;93.40;97584.13;4438694;32;34585;-80
2023/01/19 02:26:28;;;;;;;0.50;0.50;;;;;;;5.00;93.95;97602.03;4425119;32;34317;-68
2023/01/19 02:28:58;;;;;;;0.50;0.50;;;;;;;4.65;94.93;97612.91;4424937;32;34087;-80
2023/01/19 02:31:29;;;;;;;0.50;0.50;;;;;;;4.86;93.75;97628.03;4438753;32;34392;-80
2023/01/19 02:33:59;;;;;;;0.50;0.50;;;;;;;5.07;94.02;97636.31;4424762;32;35204;-80
2023/01/19 02:36:35;;;;;;;0.50;0.50;;;;;;;4.99;93.03;97622.69;4424928;32;32925;-77
2023/01/19 02:39:04;;;;;;;0.60;0.60;;;;;;;5.03;93.47;97599.41;4438574;32;34843;-77
2023/01/19 02:41:37;;;;;;;0.47;0.47;;;;;;;5.09;92.05;97593.28;4424651;32;35014;-76
2023/01/19 02:44:08;;;;;;;0.50;0.50;;;;;;;5.55;89.66;97612.28;4438772;32;34573;-69
2023/01/19 02:46:37;;;;;;;0.50;0.50;;;;;;;5.18;91.23;97602.59;4424790;32;33504;-79
2023/01/19 02:49:05;;;;;;;0.50;0.50;;;;;;;5.35;90.25;97597.12;4438392;32;33974;-79
2023/01/19 02:51:33;;;;;;;0.50;0.50;;;;;;;5.44;89.40;97594.41;4438309;32;35064;-78
2023/01/19 02:54:12;;;;;;;0.50;0.50;;;;;;;5.28;89.64;97593.81;4424420;32;34464;-78
2023/01/19 02:56:50;;;;;;;0.52;0.52;;;;;;;5.46;89.08;97596.06;4425436;32;33609;-79
2023/01/19 02:59:46;;;;;;;0.50;0.50;;;;;;;5.16;90.32;97604.38;4440298;32;33980;-77
2023/01/19 03:02:49;;;;;;;0.60;0.60;;;;;;;5.20;89.56;97600.84;4440188;32;35010;-79
2023/01/19 03:05:24;;;;;;;0.47;0.47;;;;;;;5.30;88.89;97605.81;4423724;32;35028;-78
2023/01/19 03:07:58;;;;;;;0.45;0.45;;;;;;;4.98;90.27;97606.38;4440335;32;34285;-75
2023/01/19 03:10:42;;;;;;;0.40;0.40;;;;;;;5.09;90.22;97606.19;4426615;32;34101;-79
2023/01/19 03:13:42;;;;;;;0.50;0.50;;;;;;;5.53;88.58;97609.72;4440251;32;35970;-79
2023/01/19 03:16:31;;;;;;;0.50;0.50;;;;;;;5.85;85.43;97624.59;4426733;32;35379;-79
2023/01/19 03:19:15;;;;;;;0.55;0.55;;;;;;;5.71;86.96;97647.25;4440317;32;34297;-79
2023/01/19 03:21:47;;;;;;;0.43;0.43;;;;;;;5.63;88.02;97641.38;4440250;32;33993;-78
2023/01/19 03:24:16;;;;;;;0.50;0.50;;;;;;;5.48;88.71;97645.09;4426340;32;35154;-69
2023/01/19 03:26:48;;;;;;;0.43;0.43;;;;;;;5.59;87.73;97635.41;4440341;32;34369;-78
2023/01/19 03:29:17;;;;;;;0.50;0.50;;;;;;;5.54;87.18;97602.81;4440211;32;33681;-73
2023/01/19 03:31:48;;;;;;;0.60;0.60;;;;;;;5.57;87.35;97585.53;4426108;32;34866;-75
2023/01/19 03:34:17;;;;;;;0.60;0.60;;;;;;;4.97;89.56;97580.59;4426258;32;34938;-75
2023/01/19 03:36:49;;;;;;;0.50;0.50;;;;;;;4.90;91.89;97578.09;4440093;32;34746;-76
2023/01/19 03:39:21;;;;;;;0.50;0.50;;;;;;;5.45;87.16;97578.00;4426431;32;34328;-77
2023/01/19 03:41:54;;;;;;;0.50;0.50;;;;;;;5.28;88.31;97566.28;4440059;32;33935;-77
2023/01/19 03:44:23;;;;;;;0.50;0.50;;;;;;;4.86;89.71;97545.50;4426321;32;35041;-78
2023/01/19 03:46:51;;;;;;;0.65;0.65;;;;;;;4.86;nan;97535.19;4426106;32;34453;-69
2023/01/19 03:49:20;;;;;;;0.50;0.50;;;;;;;5.23;88.86;97544.03;4426218;32;33579;-78
2023/01/19 03:51:47;;;;;;;0.50;0.50;;;;;;;4.84;90.22;97549.00;4426212;32;33787;-77
2023/01/19 03:54:16;;;;;;;0.55;0.55;;;;;;;4.74;92.19;97551.72;4439887;32;35150;-74
2023/01/19 03:56:44;;;;;;;0.50;0.50;;;;;;;4.95;90.97;97552.25;4439929;32;34474;-76
2023/01/19 03:59:16;;;;;;;0.62;0.62;;;;;;;4.34;94.43;97562.66;4439925;32;33628;-76
2023/01/19 04:01:45;;;;;;;0.50;0.50;;;;;;;4.82;nan;97573.94;4440000;32;34784;-77
2023/01/19 04:04:14;;;;;;;0.90;0.77;;;;;;;4.71;91.66;97603.34;4439793;32;35092;-70
2023/01/19 04:06:43;;;;;;;0.55;0.55;;;;;;;4.43;92.20;97623.53;4439843;32;34505;-72
2023/01/19 04:09:11;;;;;;;0.60;0.60;;;;;;;4.39;92.75;97608.13;4439357;32;33632;-79
2023/01/19 04:11:39;;;;;;;0.60;0.60;;;;;;;4.62;91.45;97608.63;4439826;32;33891;-77
2023/01/19 04:14:07;;;;;;;0.75;0.75;;;;;;;4.24;93.05;97612.62;4439690;32;35161;-67
2023/01/19 04:16:35;;;;;;;0.95;0.95;;;;;;;4.59;92.19;97624.16;4440017;32;35367;-78
2023/01/19 04:19:03;;;;;;;0.60;0.60;;;;;;;4.11;95.12;97623.94;4439840;32;33824;-77
2023/01/19 04:21:31;;;;;;;0.60;0.60;;;;;;;4.25;93.47;97619.44;4439835;32;33962;-76
2023/01/19 04:23:59;;;;;;;0.50;0.50;;;;;;;4.24;92.55;97610.03;4439662;32;36048;-76
2023/01/19 04:26:28;;;;;;;0.80;0.80;;;;;;;4.19;93.47;97604.09;4439778;32;34487;-78
2023/01/19 04:28:57;;;;;;;0.50;0.50;;;;;;;4.09;91.83;97594.78;4439777;32;33539;-76
2023/01/19 04:31:25;;;;;;;0.50;0.50;;;;;;;4.01;92.50;97587.16;4439709;32;34861;-79
2023/01/19 04:33:54;;;;;;;0.57;0.57;;;;;;;3.74;93.28;97593.47;4439515;32;34994;-76
2023/01/19 04:36:22;;;;;;;0.60;0.60;;;;;;;3.83;93.13;97590.81;4439639;32;34425;-78
2023/01/19 04:38:50;;;;;;;1.23;1.23;;;;;;;3.36;95.25;97584.47;4439864;32;33870;-76
2023/01/19 04:41:19;;;;;;;1.40;1.40;;;;;;;3.53;95.01;97580.00;4439626;32;34008;-77
2023/01/19 04:43:47;;;;;;;0.50;0.50;;;;;;;3.42;94.34;97584.37;4437353;32;35157;-68
2023/01/19 04:46:15;;;;;;;0.60;0.60;;;;;;;3.61;93.92;97590.19;4439274;32;35202;-66
2023/01/19 04:48:43;;;;;;;0.82;0.82;;;;;;;3.29;94.25;97585.41;4440699;32;34311;-68
2023/01/19 04:51:11;;;;;;;0.50;0.50;;;;;;;3.37;94.44;97583.59;4454846;32;33869;-68
2023/01/19 04:53:39;;;;;;;1.27;1.27;;;;;;;3.39;94.47;97607.59;4454522;32;35776;-67
2023/01/19 04:56:07;;;;;;;0.50;0.50;;;;;;;3.47;94.03;97613.50;4454884;32;34139;-69
2023/01/19 04:58:35;;;;;;;0.60;0.60;;;;;;;3.26;94.87;97614.56;4454646;32;33575;-69
2023/01/19 05:01:08;;;;;;;0.60;0.60;;;;;;;3.31;95.27;97609.38;4454877;32;33935;-70
2023/01/19 05:03:37;;;;;;;0.60;0.60;;;;;;;2.91;96.73;97604.59;4454486;32;35152;-65
2023/01/19 05:06:05;;;;;;;0.55;0.55;;;;;;;2.95;96.58;97612.28;4454521;32;35355;-67
2023/01/19 05:08:33;;;;;;;0.70;0.70;;;;;;;3.04;95.30;97603.62;4454705;32;33695;-69
2023/01/19 05:11:01;;;;;;;0.68;0.68;;;;;;;3.23;94.97;97599.19;4454509;32;33954;-74
2023/01/19 05:13:29;;;;;;;1.70;1.65;;;;;;;3.20;95.44;97596.62;4454767;32;35870;-75
2023/01/19 05:15:57;;;;;;;0.60;0.60;;;;;;;3.31;95.01;97604.25;4454337;32;34601;-77
2023/01/19 05:18:26;;;;;;;0.60;0.60;;;;;;;3.80;92.45;97626.88;4454628;32;34035;-69
2023/01/19 05:20:54;;;;;;;0.60;0.60;;;;;;;3.67;91.96;97641.62;4453117;32;34838;-78
2023/01/19 05:23:22;;;;;;;0.60;0.60;;;;;;;3.90;91.69;97649.09;4454642;32;35151;-72
2023/01/19 05:25:51;;;;;;;0.95;0.85;;;;;;;3.97;90.15;97660.16;4454332;32;34464;-69
2023/01/19 05:28:20;;;;;;;0.70;0.70;;;;;;;3.91;91.28;97667.97;4454686;32;33700;-74
2023/01/19 05:30:49;;;;;;;0.50;0.50;;;;;;;4.10;90.66;97672.03;4454272;32;34721;-76
2023/01/19 05:33:20;;;;;;;0.52;0.52;;;;;;;3.83;91.67;97673.19;4454559;32;35889;-69
2023/01/19 05:35:52;;;;;;;0.50;0.50;;;;;;;4.06;89.59;97670.38;4454204;32;34540;-76
2023/01/19 05:38:21;;;;;;;0.52;0.52;;;;;;;4.37;89.06;97665.66;4454633;32;33438;-67
2023/01/19 05:41:02;;;;;;;0.60;0.60;;;;;;;3.86;90.56;97652.56;4454340;32;33945;-68
2023/01/19 05:43:30;;;;;;;0.62;0.62;;;;;;;3.87;91.71;97654.25;4454328;32;35140;-67
2023/01/19 05:45:58;;;;;;;0.50;0.50;;;;;;;3.77;92.99;97656.06;4435024;32;33136;-67
2023/01/19 05:48:26;;;;;;;0.57;0.57;;;;;;;3.82;92.53;97653.47;4423878;32;34359;-68
2023/01/19 05:51:00;;;;;;;0.50;0.50;;;;;;;3.89;92.06;97646.53;4453522;32;34025;-68
2023/01/19 05:53:28;;;;;;;1.20;1.17;;;;;;;3.67;93.20;97649.34;4454500;32;35053;-67
2023/01/19 05:56:01;;;;;;;4.85;1.35;;;;;;;3.60;93.61;97656.28;4454012;32;34618;-68
2023/01/19 05:58:29;;;;;;;0.85;0.85;;;;;;;3.58;92.71;97645.16;4454527;32;34467;-75
2023/01/19 06:01:04;;;;;;;1.20;1.20;;;;;;;3.49;94.67;97634.91;4453975;32;34033;-66
2023/01/19 06:03:33;;;;;;;0.60;0.60;;;;;;;3.37;94.23;97632.47;4454409;32;35108;-67
2023/01/19 06:06:02;;;;;;;0.65;0.65;;;;;;;3.43;94.24;97642.72;4453921;32;34612;-78
2023/01/19 06:08:31;;;;;;;0.50;0.50;;;;;;;3.56;93.52;97646.84;4454275;32;34083;-74
2023/01/19 06:10:59;;;;;;;0.82;0.82;;;;;;;3.40;94.76;97653.03;4453887;32;33818;-68
2023/01/19 06:13:27;;;;;;;1.05;1.05;;;;;;;3.41;94.42;97634.16;4454134;32;35679;-78
2023/01/19 06:15:57;;;;;;;0.50;0.50;;;;;;;3.39;94.67;97612.75;4453785;32;34330;-66
2023/01/19 06:18:26;;;;;;;1.40;1.33;;;;;;;3.36;94.43;97623.06;4454236;32;33477;-69
2023/01/19 06:20:57;;;;;;;0.60;0.60;;;;;;;3.31;95.82;97611.97;4439929;32;34187;-74
2023/01/19 06:23:28;;;;;;;0.90;0.90;;;;;;;3.57;95.40;97594.53;4454140;32;35090;-72
2023/01/19 06:25:56;;;;;;;0.77;0.77;;;;;;;2.93;98.19;97590.00;4439788;32;34411;-81
2023/01/19 06:28:24;;;;;;;0.60;0.60;;;;;;;3.16;96.86;97587.22;4453987;32;33546;-82
2023/01/19 06:30:54;;;;;;;1.37;1.33;;;;;;;3.39;95.50;97584.44;4454161;32;34849;-80
2023/01/19 06:33:23;;;;;;;2.30;1.55;;;;;;;3.33;96.18;97584.50;4458919;32;35116;-83
2023/01/19 06:35:51;;;;;;;0.90;0.90;;;;;;;3.18;96.46;97609.50;4444776;32;35527;-81
2023/01/19 06:38:19;;;;;;;0.90;0.90;;;;;;;3.23;96.65;97625.75;4459092;32;33616;-80
2023/01/19 06:40:57;;;;;;;5.53;2.45;;;;;;;3.27;97.36;97646.31;4458651;32;34756;-80
2023/01/19 06:43:26;;;;;;;0.90;0.90;;;;;;;3.57;96.43;97640.84;4458900;32;35019;-78
2023/01/19 06:45:55;;;;;;;1.00;1.00;;;;;;;3.48;95.89;97651.25;4458488;32;34526;-76
2023/01/19 06:48:23;;;;;;;1.05;1.05;;;;;;;3.59;96.40;97644.25;4459262;32;33763;-78
2023/01/19 06:50:51;;;;;;;1.10;1.10;;;;;;;3.70;96.44;97640.72;4458354;32;33841;-78
2023/01/19 06:53:21;;;;;;;0.95;0.95;;;;;;;3.45;96.14;97632.41;4459193;32;35744;-81
2023/01/19 06:55:49;;;;;;;0.80;0.80;;;;;;;3.67;96.43;97625.31;4458391;32;34587;-79
2023/01/19 06:58:17;;;;;;;0.90;0.90;;;;;;;3.73;96.18;97612.38;4458725;32;34379;-77
2023/01/19 07:00:45;;;;;;;0.77;0.77;;;;;;;3.50;97.71;97622.94;4458558;32;34606;-77
2023/01/19 07:03:20;;;;;;;2.40;2.28;;;;;;;3.84;96.10;97610.53;4458857;32;36046;-72
2023/01/19 07:05:52;;;;;;;6.87;4.93;;;;;;;3.50;98.43;97613.47;4458214;32;34291;-68
2023/01/19 07:08:20;;;;;;;0.60;0.60;;;;;;;3.47;99.11;97620.38;4458707;32;33581;-72
2023/01/19 07:10:49;;;;;;;1.10;1.08;;;;;;;3.86;97.73;97611.34;4458293;32;33960;-69
2023/01/19 07:13:38;;;;;;;1.40;1.30;;;;;;;3.84;98.54;97623.41;4458651;32;35855;-68
2023/01/19 07:16:09;;;;;;;0.90;0.90;;;;;;;3.90;99.02;97622.47;4458041;32;34269;-67
2023/01/19 07:18:38;;;;;;;0.82;0.82;;;;;;;3.77;100.00;97622.59;4458824;32;33627;-68
2023/01/19 07:21:08;;;;;;;1.05;1.02;;;;;;;4.09;98.12;97631.66;4458130;32;33812;-69
2023/01/19 07:23:37;;;;;;;2.55;2.35;;;;;;;3.88;100.00;97640.53;4458254;32;35030;-78
2023/01/19 07:26:05;;;;;;;1.27;1.27;;;;;;;4.02;98.38;97637.78;4457989;32;34529;-69
2023/01/19 07:28:36;;;;;;;2.85;1.50;;;;;;;4.23;97.36;97652.13;4458236;32;33446;-75
2023/01/19 07:31:04;;;;;;;1.65;1.55;;;;;;;4.02;98.62;97662.69;4458321;32;34761;-75
2023/01/19 07:33:32;;;;;;;0.68;0.68;;;;;;;4.16;99.30;97666.81;4458055;32;35541;-77
2023/01/19 07:36:01;;;;;;;2.12;2.00;;;;;;;4.07;99.14;97666.06;4457754;32;34332;-68
2023/01/19 07:38:29;;;;;;;1.58;1.40;;;;;;;4.09;98.67;97672.03;4458239;32;33760;-70
2023/01/19 07:41:04;;;;;;;3.03;2.83;;;;;;;4.29;98.19;97669.22;4457729;32;33958;-72
2023/01/19 07:43:33;;;;;;;0.95;0.95;;;;;;;4.46;97.80;97666.44;4441971;32;35134;-69
2023/01/19 07:46:03;;;;;;;2.37;1.55;;;;;;;4.11;98.67;97672.88;4441182;32;34053;-67
2023/01/19 07:48:31;;;;;;;0.82;0.77;;;;;;;4.13;97.75;97677.16;4455405;32;34059;-66
2023/01/19 07:51:07;;;;;;;1.00;1.00;;;;;;;4.27;97.72;97679.56;4455066;32;34442;-66
2023/01/19 07:53:40;;;;;;;2.65;2.45;;;;;;;4.31;96.36;97686.38;4442214;32;36027;-65
2023/01/19 07:56:09;;;;;;;2.15;2.03;;;;;;;4.34;97.45;97680.31;4455152;32;34527;-75
2023/01/19 07:58:38;;;;;;;1.87;1.00;;;;;;;4.52;95.54;97680.09;4455400;32;33343;-66
2023/01/19 08:01:08;;;;;;;2.90;2.00;;;;;;;4.46;95.09;97681.91;4455010;32;33994;-65
2023/01/19 08:03:37;;;;;;;1.27;1.08;;;;;;;4.34;96.12;97690.63;4455311;32;35855;-66
2023/01/19 08:06:05;;;;;;;1.17;1.12;;;;;;;4.23;97.09;97688.19;4440880;32;34079;-68
2023/01/19 08:08:34;;;;;;;1.02;1.02;;;;;;;4.30;96.10;97676.94;4455271;32;34108;-66
2023/01/19 08:11:03;;;;;;;1.42;1.42;;;;;;;4.36;95.53;97674.28;4455018;32;33784;-71
2023/01/19 08:13:32;;;;;;;0.98;0.98;;;;;;;4.34;95.12;97664.84;4455372;32;35971;-70
2023/01/19 08:16:00;;;;;;;0.73;0.73;;;;;;;4.40;95.75;97674.25;4454953;32;34573;-71
2023/01/19 08:18:28;;;;;;;1.60;1.50;;;;;;;4.27;96.43;97666.69;4455221;32;33487;-67
2023/01/19 08:21:00;;;;;;;6.65;3.62;;;;;;;3.85;96.98;97656.00;4454882;32;33540;-66
2023/01/19 08:23:29;;;;;;;3.05;2.80;;;;;;;4.08;97.81;97657.47;4455176;32;34942;-67
2023/01/19 08:25:58;;;;;;;5.00;3.60;;;;;;;4.37;95.72;97649.38;4454652;32;35227;-67
2023/01/19 08:28:26;;;;;;;1.40;1.35;;;;;;;4.31;95.81;97652.03;4455018;32;33650;-69
2023/01/19 08:30:54;;;;;;;6.40;2.67;;;;;;;4.02;96.98;97660.09;4454799;32;33832;-71
2023/01/19 08:33:24;;;;;;;1.85;1.58;;;;;;;4.25;95.75;97652.94;4454672;32;35152;-70
2023/01/19 08:35:55;;;;;;;2.12;2.00;;;;;;;4.17;96.74;97665.94;4441296;32;35076;-67
2023/01/19 08:38:23;;;;;;;3.95;3.78;;;;;;;4.22;96.29;97671.03;4454988;32;33468;-77
2023/01/19 08:40:52;;;;;;;4.70;4.30;;;;;;;3.99;97.70;97681.63;4454666;32;33827;-70
2023/01/19 08:43:20;;;;;;;2.65;2.45;;;;;;;4.01;97.64;97682.44;4455033;32;35036;-74
2023/01/19 08:45:52;;;;;;;1.83;1.73;;;;;;;4.14;97.40;97684.00;4440470;32;35085;-77
2023/01/19 08:48:22;;;;;;;1.67;1.58;;;;;;;4.14;97.84;97683.16;4455041;32;33247;-68
2023/01/19 08:50:51;;;;;;;2.85;1.30;;;;;;;4.19;96.04;97686.53;4447559;32;34676;-67
2023/01/19 08:53:22;;;;;;;3.25;3.05;;;;;;;4.25;95.72;97681.28;4439388;32;36038;-68
2023/01/19 08:55:56;;;;;;;2.35;2.15;;;;;;;4.06;96.17;97679.78;4439028;32;34201;-77
2023/01/19 08:58:24;;;;;;;2.10;1.65;;;;;;;4.15;96.40;97685.72;4439348;32;33329;-74
2023/01/19 09:00:53;;;;;;;4.35;1.87;;;;;;;4.05;97.47;97688.41;4439285;32;33918;-73
2023/01/19 09:03:22;;;;;;;2.47;2.33;;;;;;;3.98;97.92;97677.31;4439385;32;35927;-80
2023/01/19 09:05:50;;;;;;;1.58;1.48;;;;;;;4.15;96.11;97682.28;4439079;32;34424;-74
2023/01/19 09:08:19;;;;;;;2.20;2.03;;;;;;;3.97;96.93;97676.47;4439325;32;33552;-80
2023/01/19 09:10:48;;;;;;;3.17;2.35;;;;;;;4.16;97.46;97681.41;4439090;32;34754;-77
2023/01/19 09:13:18;;;;;;;0.93;0.93;;;;;;;4.15;96.57;97683.13;4439093;32;35055;-71
2023/01/19 09:15:46;;;;;;;2.25;2.05;;;;;;;4.20;95.90;97698.53;4438883;32;35364;-83
2023/01/19 09:18:17;;;;;;;3.40;2.58;;;;;;;4.29;94.67;97703.59;4439269;32;33459;-71
2023/01/19 09:20:48;;;;;;;3.28;3.08;;;;;;;4.08;95.98;97701.25;4439513;32;33955;-80
2023/01/19 09:23:18;;;;;;;1.25;1.15;;;;;;;4.01;96.40;97704.75;4439287;32;35026;-66
2023/01/19 09:25:48;;;;;;;1.52;1.42;;;;;;;4.33;95.02;97699.25;4438588;32;35995;-67
2023/01/19 09:28:16;;;;;;;2.85;2.28;;;;;;;3.96;95.11;97695.34;4439129;32;34374;-68
2023/01/19 09:30:47;;;;;;;1.10;1.10;;;;;;;3.98;95.76;97683.31;4439021;32;33921;-67
2023/01/19 09:33:18;;;;;;;1.35;1.30;;;;;;;4.17;94.32;97685.69;4439182;32;35104;-67
2023/01/19 09:35:48;;;;;;;1.75;1.30;;;;;;;4.16;94.46;97686.56;4438948;32;35090;-68
2023/01/19 09:38:17;;;;;;;6.05;4.78;;;;;;;4.06;94.36;97700.41;4439044;32;34285;-66
2023/01/19 09:40:53;;;;;;;0.60;0.60;;;;;;;3.99;94.40;97704.78;4438796;32;34050;-67
2023/01/19 09:43:26;;;;;;;4.07;2.33;;;;;;;3.86;95.42;97701.47;4425437;32;35044;-68
2023/01/19 09:45:57;;;;;;;0.93;0.93;;;;;;;3.97;94.21;97686.78;4438602;32;35188;-68
2023/01/19 09:48:40;;;;;;;0.65;0.65;;;;;;;3.65;96.40;97691.41;4439204;32;33308;-67
2023/01/19 09:51:15;;;;;;;1.40;1.30;;;;;;;3.90;95.15;97685.13;4438851;32;33867;-68
2023/01/19 09:54:03;;;;;;;2.92;2.72;;;;;;;3.79;95.33;97684.37;4425243;32;35747;-68
2023/01/19 09:56:32;;;;;;;1.17;1.17;;;;;;;3.87;95.14;97690.31;4425132;32;34348;-76
2023/01/19 09:59:02;;;;;;;1.87;1.77;;;;;;;3.88;93.09;97702.34;4425152;32;33426;-68
2023/01/19 10:01:42;;;;;;;1.52;1.42;;;;;;;3.94;92.89;97704.81;4425020;32;32971;-66
2023/01/19 10:04:53;;;;;;;4.22;3.62;;;;;;;3.86;92.84;97704.03;4439137;32;35060;-71
2023/01/19 10:07:52;;;;;;;1.95;1.25;;;;;;;3.24;96.37;97706.31;4377672;32;34474;-69
2023/01/19 10:10:21;;;;;;;2.10;2.00;;;;;;;3.65;95.38;97706.84;4439196;32;33443;-79
2023/01/19 10:13:14;;;;;;;2.25;2.10;;;;;;;3.77;93.45;97699.00;4438019;32;33943;-67
2023/01/19 10:16:12;;;;;;;1.35;1.33;;;;;;;3.66;93.07;97701.69;4438965;32;35050;-69
2023/01/19 10:18:46;;;;;;;8.10;2.67;;;;;;;3.40;94.04;97702.75;4439102;32;34590;-69
2023/01/19 10:21:21;;;;;;;2.70;2.33;;;;;;;3.21;95.49;97699.50;4439007;32;34181;-70
2023/01/19 10:23:57;;;;;;;1.95;1.85;;;;;;;3.10;96.66;97706.44;4425252;32;33940;-72
2023/01/19 10:26:35;;;;;;;9.48;4.60;;;;;;;3.19;95.75;97701.25;4438668;32;36007;-70
2023/01/19 10:29:13;;;;;;;1.85;1.75;;;;;;;3.23;96.40;97699.50;4425154;32;34558;-73
2023/01/19 10:31:43;;;;;;;3.37;3.05;;;;;;;3.32;94.98;97713.97;4438729;32;33594;-70
2023/01/19 10:34:17;;;;;;;0.93;0.93;;;;;;;3.16;97.10;97711.53;4412249;32;32337;-73
2023/01/19 10:36:58;;;;;;;2.53;2.35;;;;;;;3.46;95.87;97704.44;4425981;32;35881;-70
2023/01/19 10:39:26;;;;;;;2.25;1.67;;;;;;;3.02;98.15;97719.34;4424930;32;34394;-72
2023/01/19 10:41:57;;;;;;;2.47;1.45;;;;;;;3.36;96.09;97715.69;4438600;32;33373;-74
2023/01/19 10:44:27;;;;;;;1.90;1.80;;;;;;;3.50;94.19;97728.44;4424824;32;34053;-70
2023/01/19 10:46:58;;;;;;;1.62;1.52;;;;;;;3.33;94.04;97723.41;4438420;32;35960;-73
2023/01/19 10:49:36;;;;;;;1.00;1.00;;;;;;;3.32;94.00;97721.69;4438473;32;34275;-67
2023/01/19 10:52:06;;;;;;;1.50;1.45;;;;;;;3.13;94.61;97728.72;4424788;32;33567;-67
2023/01/19 10:54:36;;;;;;;1.70;1.60;;;;;;;3.32;93.53;97726.84;4422955;32;32932;-76
2023/01/19 10:57:12;;;;;;;1.90;1.77;;;;;;;3.18;94.31;97730.37;4425084;32;35193;-66
2023/01/19 10:59:43;;;;;;;2.08;1.85;;;;;;;3.42;92.75;97734.50;4421521;32;34407;-66
2023/01/19 11:02:27;;;;;;;2.60;2.17;;;;;;;2.99;95.83;97744.22;4438292;32;33686;-68
2023/01/19 11:05:01;;;;;;;1.85;1.75;;;;;;;3.36;94.41;97749.12;4435522;32;34103;-68
2023/01/19 11:07:32;;;;;;;3.35;2.20;;;;;;;2.93;95.56;97742.56;4424089;32;35776;-67
2023/01/19 11:10:16;;;;;;;1.70;1.60;;;;;;;3.34;93.82;97732.84;4437895;32;33763;-68
2023/01/19 11:13:00;;;;;;;5.53;3.53;;;;;;;3.45;92.92;97728.47;4438086;32;33470;-68
2023/01/19 11:15:39;;;;;;;1.75;1.35;;;;;;;3.48;92.02;97728.44;4437786;32;33951;-68
2023/01/19 11:18:17;;;;;;;0.65;0.65;;;;;;;3.12;94.78;97734.72;4438216;32;35044;-78
2023/01/19 11:20:50;;;;;;;1.55;1.00;;;;;;;3.13;95.47;97731.28;4426135;32;34623;-69
2023/01/19 11:23:18;;;;;;;2.37;1.95;;;;;;;3.21;95.12;97727.78;4426243;32;34249;-70
2023/01/19 11:25:48;;;;;;;2.35;1.80;;;;;;;3.16;96.50;97718.38;4453856;32;33432;-66
2023/01/19 11:28:26;;;;;;;0.90;0.90;;;;;;;3.28;94.49;97722.59;4441566;32;36535;-68
2023/01/19 11:31:13;;;;;;;1.15;1.15;;;;;;;3.38;94.75;97722.50;4434584;32;183462;-66
2023/01/19 11:33:50;;;;;;;1.10;1.10;;;;;;;3.00;95.80;97725.34;4439610;32;34341;-69
2023/01/19 11:36:25;;;;;;;1.08;1.08;;;;;;;3.04;97.37;97735.63;4426290;32;34806;-65
2023/01/19 11:38:55;;;;;;;0.70;0.70;;;;;;;3.11;97.31;97731.28;4441198;32;35115;-74
2023/01/19 11:41:24;;;;;;;5.47;2.62;;;;;;;3.10;97.78;97733.88;4441651;32;34573;-74
2023/01/19 11:43:55;;;;;;;0.80;0.80;;;;;;;3.19;97.55;97742.38;4455070;32;34415;-67
2023/01/19 11:46:28;;;;;;;1.45;1.35;;;;;;;3.10;96.71;97727.00;4455383;32;34703;-82
2023/01/19 11:49:04;;;;;;;1.65;1.55;;;;;;;3.31;96.47;97732.88;4439699;32;35148;-68
2023/01/19 11:51:43;;;;;;;5.07;4.68;;;;;;;3.31;95.83;97738.84;4439744;32;35203;-74
2023/01/19 11:54:20;;;;;;;3.92;2.65;;;;;;;3.19;96.05;97739.81;4439556;32;34443;-66
2023/01/19 11:56:50;;;;;;;2.35;2.17;;;;;;;3.26;96.33;97742.34;4426067;32;34098;-66
2023/01/19 11:59:23;;;;;;;2.35;1.55;;;;;;;3.31;95.80;97744.00;4426201;32;35039;-80
2023/01/19 12:01:56;;;;;;;1.23;1.12;;;;;;;3.03;96.77;97740.75;4426486;32;34995;-78
2023/01/19 12:04:37;;;;;;;2.83;2.62;;;;;;;3.28;96.69;97744.00;4439908;32;33479;-83
2023/01/19 12:07:09;;;;;;;1.37;1.35;;;;;;;3.16;96.87;97752.69;4426360;32;33866;-69
2023/01/19 12:09:45;;;;;;;3.20;2.90;;;;;;;3.23;95.15;97759.50;4424855;32;35465;-74
2023/01/19 12:12:34;;;;;;;6.47;2.35;;;;;;;3.25;95.41;97756.03;4425203;32;34582;-74